sensor_id;sensor_type;location;lat;lon;timestamp;P1;durP1;ratioP1;P2;durP2;ratioP2
74523;SDS011;63074;44.696;10.358;2022-12-07T00:01:26;10.48;;;6.13;;
74523;SDS011;63074;44.696;10.358;2022-12-07T00:03:54;11.90;;;6.68;;
74523;SDS011;63074;44.696;10.358;2022-12-07T00:06:25;10.73;;;6.72;;
74523;SDS011;63074;44.696;10.358;2022-12-07T00:08:52;12.68;;;6.90;;
74523;SDS011;63074;44.696;10.358;2022-12-07T00:11:19;9.93;;;6.93;;
74523;SDS011;63074;44.696;10.358;2022-12-07T00:13:47;8.88;;;5.57;;
74523;SDS011;63074;44.696;10.358;2022-12-07T00:16:25;10.88;;;6.63;;
74523;SDS011;63074;44.696;10.358;2022-12-07T00:18:53;10.77;;;6.43;;
74523;SDS011;63074;44.696;10.358;2022-12-07T00:21:20;11.15;;;6.13;;
74523;SDS011;63074;44.696;10.358;2022-12-07T00:23:50;9.85;;;6.30;;
74523;SDS011;63074;44.696;10.358;2022-12-07T00:28:46;11.38;;;6.93;;
74523;SDS011;63074;44.696;10.358;2022-12-07T00:31:14;9.43;;;6.85;;
74523;SDS011;63074;44.696;10.358;2022-12-07T00:33:41;11.98;;;7.47;;
74523;SDS011;63074;44.696;10.358;2022-12-07T00:36:12;10.77;;;6.53;;
74523;SDS011;63074;44.696;10.358;2022-12-07T00:38:40;12.43;;;7.28;;
74523;SDS011;63074;44.696;10.358;2022-12-07T00:41:09;10.32;;;6.68;;
74523;SDS011;63074;44.696;10.358;2022-12-07T00:43:44;9.30;;;5.97;;
74523;SDS011;63074;44.696;10.358;2022-12-07T00:46:11;10.70;;;6.90;;
74523;SDS011;63074;44.696;10.358;2022-12-07T00:48:38;9.82;;;6.88;;
74523;SDS011;63074;44.696;10.358;2022-12-07T00:51:05;11.55;;;7.10;;
74523;SDS011;63074;44.696;10.358;2022-12-07T00:53:34;9.20;;;6.18;;
74523;SDS011;63074;44.696;10.358;2022-12-07T00:56:05;11.63;;;6.80;;
74523;SDS011;63074;44.696;10.358;2022-12-07T00:58:33;9.65;;;6.43;;
74523;SDS011;63074;44.696;10.358;2022-12-07T01:01:00;9.93;;;5.50;;
74523;SDS011;63074;44.696;10.358;2022-12-07T01:03:27;10.15;;;6.32;;
74523;SDS011;63074;44.696;10.358;2022-12-07T01:05:54;11.77;;;7.38;;
74523;SDS011;63074;44.696;10.358;2022-12-07T01:08:21;9.55;;;6.93;;
74523;SDS011;63074;44.696;10.358;2022-12-07T01:10:49;10.50;;;6.72;;
74523;SDS011;63074;44.696;10.358;2022-12-07T01:13:22;9.55;;;5.80;;
74523;SDS011;63074;44.696;10.358;2022-12-07T01:15:48;10.35;;;5.65;;
74523;SDS011;63074;44.696;10.358;2022-12-07T01:18:14;9.13;;;6.50;;
74523;SDS011;63074;44.696;10.358;2022-12-07T01:20:41;11.55;;;6.55;;
74523;SDS011;63074;44.696;10.358;2022-12-07T01:23:07;11.63;;;6.15;;
74523;SDS011;63074;44.696;10.358;2022-12-07T01:25:33;9.52;;;5.75;;
74523;SDS011;63074;44.696;10.358;2022-12-07T01:27:59;8.98;;;6.25;;
74523;SDS011;63074;44.696;10.358;2022-12-07T01:30:25;9.15;;;5.18;;
74523;SDS011;63074;44.696;10.358;2022-12-07T01:32:51;8.23;;;4.72;;
74523;SDS011;63074;44.696;10.358;2022-12-07T01:35:18;8.35;;;5.55;;
74523;SDS011;63074;44.696;10.358;2022-12-07T01:37:44;7.78;;;5.00;;
74523;SDS011;63074;44.696;10.358;2022-12-07T01:40:10;7.68;;;4.28;;
74523;SDS011;63074;44.696;10.358;2022-12-07T01:42:37;8.73;;;4.82;;
74523;SDS011;63074;44.696;10.358;2022-12-07T01:47:56;8.00;;;4.40;;
74523;SDS011;63074;44.696;10.358;2022-12-07T01:50:24;7.53;;;4.25;;
74523;SDS011;63074;44.696;10.358;2022-12-07T01:52:53;7.25;;;4.35;;
74523;SDS011;63074;44.696;10.358;2022-12-07T01:55:22;8.02;;;5.28;;
74523;SDS011;63074;44.696;10.358;2022-12-07T01:57:50;7.47;;;4.63;;
74523;SDS011;63074;44.696;10.358;2022-12-07T02:00:19;8.00;;;4.60;;
74523;SDS011;63074;44.696;10.358;2022-12-07T02:05:41;9.90;;;4.95;;
74523;SDS011;63074;44.696;10.358;2022-12-07T02:08:08;8.10;;;4.53;;
74523;SDS011;63074;44.696;10.358;2022-12-07T02:10:36;8.00;;;4.18;;
74523;SDS011;63074;44.696;10.358;2022-12-07T02:13:04;7.63;;;5.25;;
74523;SDS011;63074;44.696;10.358;2022-12-07T02:18:48;9.38;;;5.97;;
74523;SDS011;63074;44.696;10.358;2022-12-07T02:27:14;12.40;;;7.00;;
74523;SDS011;63074;44.696;10.358;2022-12-07T02:32:28;9.95;;;6.75;;
74523;SDS011;63074;44.696;10.358;2022-12-07T02:35:05;10.95;;;6.50;;
74523;SDS011;63074;44.696;10.358;2022-12-07T02:40:18;14.82;;;7.30;;
74523;SDS011;63074;44.696;10.358;2022-12-07T02:43:44;10.88;;;5.85;;
74523;SDS011;63074;44.696;10.358;2022-12-07T02:45:59;9.68;;;5.55;;
74523;SDS011;63074;44.696;10.358;2022-12-07T02:48:29;10.40;;;6.80;;
74523;SDS011;63074;44.696;10.358;2022-12-07T02:50:58;10.73;;;7.00;;
74523;SDS011;63074;44.696;10.358;2022-12-07T02:53:58;11.07;;;6.88;;
74523;SDS011;63074;44.696;10.358;2022-12-07T03:07:51;9.70;;;6.10;;
74523;SDS011;63074;44.696;10.358;2022-12-07T03:13:28;7.40;;;5.18;;
74523;SDS011;63074;44.696;10.358;2022-12-07T03:19:36;11.68;;;5.90;;
74523;SDS011;63074;44.696;10.358;2022-12-07T03:21:41;10.10;;;5.68;;
74523;SDS011;63074;44.696;10.358;2022-12-07T03:26:49;8.45;;;4.57;;
74523;SDS011;63074;44.696;10.358;2022-12-07T03:29:28;8.80;;;4.55;;
74523;SDS011;63074;44.696;10.358;2022-12-07T03:32:10;8.50;;;4.75;;
74523;SDS011;63074;44.696;10.358;2022-12-07T03:34:59;11.13;;;4.85;;
74523;SDS011;63074;44.696;10.358;2022-12-07T03:37:29;9.63;;;5.32;;
74523;SDS011;63074;44.696;10.358;2022-12-07T03:42:49;9.07;;;5.20;;
74523;SDS011;63074;44.696;10.358;2022-12-07T03:45:17;9.40;;;4.80;;
74523;SDS011;63074;44.696;10.358;2022-12-07T03:47:47;8.00;;;4.50;;
74523;SDS011;63074;44.696;10.358;2022-12-07T03:50:21;8.98;;;4.85;;
74523;SDS011;63074;44.696;10.358;2022-12-07T03:55:35;10.48;;;4.95;;
74523;SDS011;63074;44.696;10.358;2022-12-07T03:58:06;7.57;;;3.72;;
74523;SDS011;63074;44.696;10.358;2022-12-07T04:03:02;8.23;;;4.68;;
74523;SDS011;63074;44.696;10.358;2022-12-07T04:05:28;7.50;;;4.22;;
74523;SDS011;63074;44.696;10.358;2022-12-07T04:07:55;10.45;;;4.72;;
74523;SDS011;63074;44.696;10.358;2022-12-07T04:10:21;8.25;;;4.20;;
74523;SDS011;63074;44.696;10.358;2022-12-07T04:12:47;7.82;;;4.72;;
74523;SDS011;63074;44.696;10.358;2022-12-07T04:15:13;8.07;;;4.90;;
74523;SDS011;63074;44.696;10.358;2022-12-07T04:17:39;7.95;;;3.92;;
74523;SDS011;63074;44.696;10.358;2022-12-07T04:20:06;8.73;;;4.43;;
74523;SDS011;63074;44.696;10.358;2022-12-07T04:22:33;8.15;;;4.43;;
74523;SDS011;63074;44.696;10.358;2022-12-07T04:24:59;8.18;;;4.28;;
74523;SDS011;63074;44.696;10.358;2022-12-07T04:27:25;9.15;;;4.50;;
74523;SDS011;63074;44.696;10.358;2022-12-07T04:29:51;8.50;;;4.68;;
74523;SDS011;63074;44.696;10.358;2022-12-07T04:32:18;7.57;;;4.00;;
74523;SDS011;63074;44.696;10.358;2022-12-07T04:34:44;7.10;;;3.97;;
74523;SDS011;63074;44.696;10.358;2022-12-07T04:37:10;8.20;;;4.07;;
74523;SDS011;63074;44.696;10.358;2022-12-07T04:39:37;7.22;;;4.00;;
74523;SDS011;63074;44.696;10.358;2022-12-07T04:42:03;7.30;;;4.63;;
74523;SDS011;63074;44.696;10.358;2022-12-07T04:44:29;8.30;;;4.85;;
74523;SDS011;63074;44.696;10.358;2022-12-07T04:46:56;9.05;;;4.82;;
74523;SDS011;63074;44.696;10.358;2022-12-07T04:49:22;9.40;;;4.60;;
74523;SDS011;63074;44.696;10.358;2022-12-07T04:51:50;7.55;;;4.35;;
74523;SDS011;63074;44.696;10.358;2022-12-07T04:54:16;8.85;;;4.70;;
74523;SDS011;63074;44.696;10.358;2022-12-07T04:56:43;8.52;;;4.68;;
74523;SDS011;63074;44.696;10.358;2022-12-07T04:59:13;9.10;;;4.65;;
74523;SDS011;63074;44.696;10.358;2022-12-07T05:01:40;9.20;;;5.10;;
74523;SDS011;63074;44.696;10.358;2022-12-07T05:04:07;8.25;;;4.90;;
74523;SDS011;63074;44.696;10.358;2022-12-07T05:06:34;9.00;;;4.32;;
74523;SDS011;63074;44.696;10.358;2022-12-07T05:09:00;6.75;;;4.47;;
74523;SDS011;63074;44.696;10.358;2022-12-07T05:11:28;9.05;;;4.32;;
74523;SDS011;63074;44.696;10.358;2022-12-07T05:14:03;8.15;;;4.70;;
74523;SDS011;63074;44.696;10.358;2022-12-07T05:16:35;8.52;;;4.90;;
74523;SDS011;63074;44.696;10.358;2022-12-07T05:19:02;8.15;;;4.60;;
74523;SDS011;63074;44.696;10.358;2022-12-07T05:21:30;9.35;;;5.68;;
74523;SDS011;63074;44.696;10.358;2022-12-07T05:23:56;9.60;;;5.68;;
74523;SDS011;63074;44.696;10.358;2022-12-07T05:26:22;7.25;;;3.95;;
74523;SDS011;63074;44.696;10.358;2022-12-07T05:28:52;8.25;;;4.95;;
74523;SDS011;63074;44.696;10.358;2022-12-07T05:31:20;8.05;;;3.78;;
74523;SDS011;63074;44.696;10.358;2022-12-07T05:33:47;8.93;;;4.85;;
74523;SDS011;63074;44.696;10.358;2022-12-07T05:36:13;10.75;;;5.63;;
74523;SDS011;63074;44.696;10.358;2022-12-07T05:38:39;12.00;;;5.18;;
74523;SDS011;63074;44.696;10.358;2022-12-07T05:41:06;9.45;;;4.85;;
74523;SDS011;63074;44.696;10.358;2022-12-07T05:43:53;10.13;;;5.40;;
74523;SDS011;63074;44.696;10.358;2022-12-07T05:46:20;10.23;;;6.32;;
74523;SDS011;63074;44.696;10.358;2022-12-07T05:48:46;8.48;;;5.63;;
74523;SDS011;63074;44.696;10.358;2022-12-07T05:51:12;11.38;;;5.63;;
74523;SDS011;63074;44.696;10.358;2022-12-07T05:53:39;9.95;;;5.10;;
74523;SDS011;63074;44.696;10.358;2022-12-07T05:56:05;8.77;;;4.85;;
74523;SDS011;63074;44.696;10.358;2022-12-07T05:58:31;11.32;;;6.03;;
74523;SDS011;63074;44.696;10.358;2022-12-07T06:01:16;13.30;;;6.22;;
74523;SDS011;63074;44.696;10.358;2022-12-07T06:03:42;11.43;;;5.85;;
74523;SDS011;63074;44.696;10.358;2022-12-07T06:06:09;10.23;;;5.90;;
74523;SDS011;63074;44.696;10.358;2022-12-07T06:08:36;10.48;;;5.50;;
74523;SDS011;63074;44.696;10.358;2022-12-07T06:11:02;9.00;;;5.03;;
74523;SDS011;63074;44.696;10.358;2022-12-07T06:13:46;9.00;;;5.57;;
74523;SDS011;63074;44.696;10.358;2022-12-07T06:16:13;10.00;;;6.00;;
74523;SDS011;63074;44.696;10.358;2022-12-07T06:18:39;8.80;;;5.22;;
74523;SDS011;63074;44.696;10.358;2022-12-07T06:21:05;12.18;;;6.20;;
74523;SDS011;63074;44.696;10.358;2022-12-07T06:23:31;10.30;;;5.40;;
74523;SDS011;63074;44.696;10.358;2022-12-07T06:25:57;12.23;;;5.72;;
74523;SDS011;63074;44.696;10.358;2022-12-07T06:28:24;11.70;;;5.97;;
74523;SDS011;63074;44.696;10.358;2022-12-07T06:30:57;10.13;;;6.30;;
74523;SDS011;63074;44.696;10.358;2022-12-07T06:33:24;11.10;;;6.47;;
74523;SDS011;63074;44.696;10.358;2022-12-07T06:35:50;8.98;;;4.78;;
74523;SDS011;63074;44.696;10.358;2022-12-07T06:38:16;9.43;;;5.32;;
74523;SDS011;63074;44.696;10.358;2022-12-07T06:40:43;10.38;;;6.53;;
74523;SDS011;63074;44.696;10.358;2022-12-07T06:43:09;11.02;;;5.28;;
74523;SDS011;63074;44.696;10.358;2022-12-07T06:45:35;8.88;;;5.78;;
74523;SDS011;63074;44.696;10.358;2022-12-07T06:48:01;10.25;;;5.60;;
74523;SDS011;63074;44.696;10.358;2022-12-07T06:50:28;9.05;;;5.72;;
74523;SDS011;63074;44.696;10.358;2022-12-07T06:52:54;11.73;;;5.40;;
74523;SDS011;63074;44.696;10.358;2022-12-07T06:55:20;11.32;;;5.53;;
74523;SDS011;63074;44.696;10.358;2022-12-07T06:57:46;8.27;;;4.82;;
74523;SDS011;63074;44.696;10.358;2022-12-07T07:00:12;9.57;;;4.90;;
74523;SDS011;63074;44.696;10.358;2022-12-07T07:02:39;10.15;;;4.53;;
74523;SDS011;63074;44.696;10.358;2022-12-07T07:05:06;8.30;;;4.47;;
74523;SDS011;63074;44.696;10.358;2022-12-07T07:07:32;11.10;;;5.82;;
74523;SDS011;63074;44.696;10.358;2022-12-07T07:09:58;12.15;;;5.25;;
74523;SDS011;63074;44.696;10.358;2022-12-07T07:12:24;12.38;;;7.18;;
74523;SDS011;63074;44.696;10.358;2022-12-07T07:14:50;9.85;;;5.97;;
74523;SDS011;63074;44.696;10.358;2022-12-07T07:17:17;12.30;;;7.65;;
74523;SDS011;63074;44.696;10.358;2022-12-07T07:19:43;11.95;;;6.80;;
74523;SDS011;63074;44.696;10.358;2022-12-07T07:22:09;9.48;;;6.78;;
74523;SDS011;63074;44.696;10.358;2022-12-07T07:24:35;13.77;;;6.60;;
74523;SDS011;63074;44.696;10.358;2022-12-07T07:27:01;12.40;;;6.57;;
74523;SDS011;63074;44.696;10.358;2022-12-07T07:29:28;10.13;;;5.57;;
74523;SDS011;63074;44.696;10.358;2022-12-07T07:31:54;8.52;;;5.25;;
74523;SDS011;63074;44.696;10.358;2022-12-07T07:34:20;10.77;;;5.57;;
74523;SDS011;63074;44.696;10.358;2022-12-07T07:36:46;9.38;;;5.38;;
74523;SDS011;63074;44.696;10.358;2022-12-07T07:39:12;9.65;;;5.95;;
74523;SDS011;63074;44.696;10.358;2022-12-07T07:41:39;9.15;;;5.05;;
74523;SDS011;63074;44.696;10.358;2022-12-07T07:44:05;9.18;;;5.32;;
74523;SDS011;63074;44.696;10.358;2022-12-07T07:46:32;11.05;;;6.25;;
74523;SDS011;63074;44.696;10.358;2022-12-07T07:48:59;11.10;;;6.55;;
74523;SDS011;63074;44.696;10.358;2022-12-07T07:51:25;9.98;;;5.97;;
74523;SDS011;63074;44.696;10.358;2022-12-07T07:53:51;10.05;;;5.32;;
74523;SDS011;63074;44.696;10.358;2022-12-07T07:56:17;11.50;;;6.70;;
74523;SDS011;63074;44.696;10.358;2022-12-07T07:58:43;13.35;;;7.22;;
74523;SDS011;63074;44.696;10.358;2022-12-07T08:01:10;13.38;;;7.82;;
74523;SDS011;63074;44.696;10.358;2022-12-07T08:03:38;14.30;;;9.05;;
74523;SDS011;63074;44.696;10.358;2022-12-07T08:06:04;14.68;;;7.20;;
74523;SDS011;63074;44.696;10.358;2022-12-07T08:08:31;14.52;;;8.45;;
74523;SDS011;63074;44.696;10.358;2022-12-07T08:10:57;16.05;;;9.32;;
74523;SDS011;63074;44.696;10.358;2022-12-07T08:13:26;15.95;;;8.55;;
74523;SDS011;63074;44.696;10.358;2022-12-07T08:15:53;16.52;;;8.60;;
74523;SDS011;63074;44.696;10.358;2022-12-07T08:18:19;15.02;;;8.50;;
74523;SDS011;63074;44.696;10.358;2022-12-07T08:20:45;17.92;;;9.75;;
74523;SDS011;63074;44.696;10.358;2022-12-07T08:23:11;19.92;;;10.85;;
74523;SDS011;63074;44.696;10.358;2022-12-07T08:25:38;19.75;;;9.63;;
74523;SDS011;63074;44.696;10.358;2022-12-07T08:28:04;17.17;;;9.57;;
74523;SDS011;63074;44.696;10.358;2022-12-07T08:30:31;18.00;;;10.05;;
74523;SDS011;63074;44.696;10.358;2022-12-07T08:32:58;17.40;;;9.02;;
74523;SDS011;63074;44.696;10.358;2022-12-07T08:35:24;16.65;;;9.40;;
74523;SDS011;63074;44.696;10.358;2022-12-07T08:37:51;18.25;;;10.27;;
74523;SDS011;63074;44.696;10.358;2022-12-07T08:40:17;15.02;;;9.52;;
74523;SDS011;63074;44.696;10.358;2022-12-07T08:42:44;17.50;;;10.40;;
74523;SDS011;63074;44.696;10.358;2022-12-07T08:45:14;18.35;;;9.55;;
74523;SDS011;63074;44.696;10.358;2022-12-07T08:47:43;15.77;;;8.68;;
74523;SDS011;63074;44.696;10.358;2022-12-07T08:50:21;24.05;;;13.13;;
74523;SDS011;63074;44.696;10.358;2022-12-07T08:52:52;27.05;;;13.20;;
74523;SDS011;63074;44.696;10.358;2022-12-07T08:55:21;29.90;;;16.38;;
74523;SDS011;63074;44.696;10.358;2022-12-07T08:57:48;29.35;;;15.23;;
74523;SDS011;63074;44.696;10.358;2022-12-07T09:00:15;34.78;;;15.25;;
74523;SDS011;63074;44.696;10.358;2022-12-07T09:02:43;32.45;;;18.17;;
74523;SDS011;63074;44.696;10.358;2022-12-07T09:05:10;36.42;;;18.38;;
74523;SDS011;63074;44.696;10.358;2022-12-07T09:07:39;40.72;;;21.05;;
74523;SDS011;63074;44.696;10.358;2022-12-07T09:10:07;37.60;;;18.58;;
74523;SDS011;63074;44.696;10.358;2022-12-07T09:12:34;37.25;;;18.70;;
74523;SDS011;63074;44.696;10.358;2022-12-07T09:15:00;37.45;;;18.10;;
74523;SDS011;63074;44.696;10.358;2022-12-07T09:17:27;38.58;;;21.10;;
74523;SDS011;63074;44.696;10.358;2022-12-07T09:19:56;38.75;;;19.13;;
74523;SDS011;63074;44.696;10.358;2022-12-07T09:22:23;33.05;;;17.02;;
74523;SDS011;63074;44.696;10.358;2022-12-07T09:24:49;39.70;;;18.58;;
74523;SDS011;63074;44.696;10.358;2022-12-07T09:27:15;34.63;;;19.30;;
74523;SDS011;63074;44.696;10.358;2022-12-07T09:29:42;37.92;;;19.40;;
74523;SDS011;63074;44.696;10.358;2022-12-07T09:32:08;35.17;;;19.30;;
74523;SDS011;63074;44.696;10.358;2022-12-07T09:34:35;34.15;;;18.65;;
74523;SDS011;63074;44.696;10.358;2022-12-07T09:37:01;34.30;;;19.50;;
74523;SDS011;63074;44.696;10.358;2022-12-07T09:39:28;35.00;;;20.27;;
74523;SDS011;63074;44.696;10.358;2022-12-07T09:41:56;35.42;;;18.95;;
74523;SDS011;63074;44.696;10.358;2022-12-07T09:44:24;33.55;;;19.13;;
74523;SDS011;63074;44.696;10.358;2022-12-07T09:46:52;31.85;;;17.55;;
74523;SDS011;63074;44.696;10.358;2022-12-07T09:49:22;34.83;;;18.05;;
74523;SDS011;63074;44.696;10.358;2022-12-07T09:54:34;35.20;;;18.23;;
74523;SDS011;63074;44.696;10.358;2022-12-07T09:57:04;39.33;;;20.08;;
74523;SDS011;63074;44.696;10.358;2022-12-07T09:59:30;36.65;;;19.67;;
74523;SDS011;63074;44.696;10.358;2022-12-07T10:01:56;37.08;;;19.73;;
74523;SDS011;63074;44.696;10.358;2022-12-07T10:04:48;37.72;;;19.23;;
74523;SDS011;63074;44.696;10.358;2022-12-07T10:07:15;35.30;;;19.77;;
74523;SDS011;63074;44.696;10.358;2022-12-07T10:09:41;36.00;;;20.45;;
74523;SDS011;63074;44.696;10.358;2022-12-07T10:12:11;38.92;;;21.45;;
74523;SDS011;63074;44.696;10.358;2022-12-07T10:14:39;39.45;;;20.00;;
74523;SDS011;63074;44.696;10.358;2022-12-07T10:17:33;36.00;;;19.38;;
74523;SDS011;63074;44.696;10.358;2022-12-07T10:22:38;35.55;;;18.65;;
74523;SDS011;63074;44.696;10.358;2022-12-07T10:25:21;35.15;;;19.67;;
74523;SDS011;63074;44.696;10.358;2022-12-07T10:27:57;34.70;;;18.00;;
74523;SDS011;63074;44.696;10.358;2022-12-07T10:30:24;33.80;;;18.58;;
74523;SDS011;63074;44.696;10.358;2022-12-07T10:32:50;35.30;;;19.90;;
74523;SDS011;63074;44.696;10.358;2022-12-07T10:35:27;37.35;;;19.42;;
74523;SDS011;63074;44.696;10.358;2022-12-07T10:37:55;36.00;;;20.13;;
74523;SDS011;63074;44.696;10.358;2022-12-07T10:40:26;38.08;;;18.85;;
74523;SDS011;63074;44.696;10.358;2022-12-07T10:48:51;36.42;;;19.45;;
74523;SDS011;63074;44.696;10.358;2022-12-07T11:02:12;34.38;;;19.38;;
74523;SDS011;63074;44.696;10.358;2022-12-07T11:07:50;31.08;;;17.42;;
74523;SDS011;63074;44.696;10.358;2022-12-07T11:19:00;31.98;;;17.35;;
74523;SDS011;63074;44.696;10.358;2022-12-07T11:21:53;30.10;;;16.92;;
74523;SDS011;63074;44.696;10.358;2022-12-07T11:24:35;31.80;;;18.77;;
74523;SDS011;63074;44.696;10.358;2022-12-07T11:32:41;30.85;;;17.30;;
74523;SDS011;63074;44.696;10.358;2022-12-07T11:38:28;32.00;;;18.17;;
74523;SDS011;63074;44.696;10.358;2022-12-07T11:41:03;33.33;;;18.75;;
74523;SDS011;63074;44.696;10.358;2022-12-07T11:46:18;31.85;;;19.45;;
74523;SDS011;63074;44.696;10.358;2022-12-07T11:49:03;29.67;;;16.25;;
74523;SDS011;63074;44.696;10.358;2022-12-07T11:51:45;30.70;;;17.92;;
74523;SDS011;63074;44.696;10.358;2022-12-07T11:54:23;26.58;;;16.15;;
74523;SDS011;63074;44.696;10.358;2022-12-07T11:56:55;27.35;;;15.77;;
74523;SDS011;63074;44.696;10.358;2022-12-07T11:59:31;26.50;;;15.43;;
74523;SDS011;63074;44.696;10.358;2022-12-07T12:02:18;28.35;;;16.80;;
74523;SDS011;63074;44.696;10.358;2022-12-07T12:07:46;27.17;;;15.90;;
74523;SDS011;63074;44.696;10.358;2022-12-07T12:10:33;26.23;;;15.50;;
74523;SDS011;63074;44.696;10.358;2022-12-07T12:16:32;29.05;;;17.45;;
74523;SDS011;63074;44.696;10.358;2022-12-07T12:21:40;29.25;;;15.93;;
74523;SDS011;63074;44.696;10.358;2022-12-07T12:24:15;27.85;;;15.73;;
74523;SDS011;63074;44.696;10.358;2022-12-07T12:26:50;29.10;;;16.42;;
74523;SDS011;63074;44.696;10.358;2022-12-07T12:29:36;28.38;;;15.75;;
74523;SDS011;63074;44.696;10.358;2022-12-07T12:35:48;25.20;;;14.55;;
74523;SDS011;63074;44.696;10.358;2022-12-07T12:40:55;26.63;;;14.77;;
74523;SDS011;63074;44.696;10.358;2022-12-07T12:59:29;34.00;;;18.48;;
74523;SDS011;63074;44.696;10.358;2022-12-07T13:04:49;34.80;;;18.45;;
74523;SDS011;63074;44.696;10.358;2022-12-07T13:15:43;36.33;;;19.50;;
74523;SDS011;63074;44.696;10.358;2022-12-07T13:18:35;35.85;;;20.58;;
74523;SDS011;63074;44.696;10.358;2022-12-07T13:31:48;33.30;;;19.85;;
74523;SDS011;63074;44.696;10.358;2022-12-07T13:37:00;31.85;;;17.38;;
74523;SDS011;63074;44.696;10.358;2022-12-07T13:42:15;28.02;;;18.02;;
74523;SDS011;63074;44.696;10.358;2022-12-07T13:44:44;30.83;;;16.83;;
74523;SDS011;63074;44.696;10.358;2022-12-07T13:47:13;29.05;;;16.90;;
74523;SDS011;63074;44.696;10.358;2022-12-07T13:50:23;27.67;;;17.08;;
74523;SDS011;63074;44.696;10.358;2022-12-07T13:52:54;33.50;;;17.38;;
74523;SDS011;63074;44.696;10.358;2022-12-07T13:55:21;27.58;;;17.23;;
74523;SDS011;63074;44.696;10.358;2022-12-07T13:57:49;33.03;;;19.35;;
74523;SDS011;63074;44.696;10.358;2022-12-07T14:00:21;34.83;;;20.92;;
74523;SDS011;63074;44.696;10.358;2022-12-07T14:05:37;34.58;;;21.48;;
74523;SDS011;63074;44.696;10.358;2022-12-07T14:08:06;34.38;;;20.55;;
74523;SDS011;63074;44.696;10.358;2022-12-07T14:16:26;35.38;;;21.65;;
74523;SDS011;63074;44.696;10.358;2022-12-07T14:21:21;35.38;;;19.05;;
74523;SDS011;63074;44.696;10.358;2022-12-07T14:24:03;36.67;;;20.27;;
74523;SDS011;63074;44.696;10.358;2022-12-07T14:26:33;35.35;;;20.77;;
74523;SDS011;63074;44.696;10.358;2022-12-07T14:29:18;37.30;;;20.52;;
74523;SDS011;63074;44.696;10.358;2022-12-07T14:31:54;37.70;;;20.42;;
74523;SDS011;63074;44.696;10.358;2022-12-07T14:34:21;38.80;;;20.67;;
74523;SDS011;63074;44.696;10.358;2022-12-07T14:36:49;39.10;;;20.55;;
74523;SDS011;63074;44.696;10.358;2022-12-07T14:39:15;37.05;;;20.38;;
74523;SDS011;63074;44.696;10.358;2022-12-07T14:41:41;36.95;;;20.15;;
74523;SDS011;63074;44.696;10.358;2022-12-07T14:44:21;32.72;;;18.30;;
74523;SDS011;63074;44.696;10.358;2022-12-07T14:46:51;37.42;;;19.88;;
74523;SDS011;63074;44.696;10.358;2022-12-07T14:49:18;38.00;;;21.55;;
74523;SDS011;63074;44.696;10.358;2022-12-07T14:51:44;36.03;;;18.90;;
74523;SDS011;63074;44.696;10.358;2022-12-07T14:54:16;31.08;;;18.88;;
74523;SDS011;63074;44.696;10.358;2022-12-07T14:56:44;35.80;;;20.20;;
74523;SDS011;63074;44.696;10.358;2022-12-07T15:01:43;34.63;;;17.85;;
74523;SDS011;63074;44.696;10.358;2022-12-07T15:04:10;35.38;;;18.23;;
74523;SDS011;63074;44.696;10.358;2022-12-07T15:06:36;37.67;;;19.10;;
74523;SDS011;63074;44.696;10.358;2022-12-07T15:09:03;35.55;;;19.27;;
74523;SDS011;63074;44.696;10.358;2022-12-07T15:11:29;34.78;;;19.13;;
74523;SDS011;63074;44.696;10.358;2022-12-07T15:13:55;35.65;;;18.95;;
74523;SDS011;63074;44.696;10.358;2022-12-07T15:16:38;34.28;;;17.80;;
74523;SDS011;63074;44.696;10.358;2022-12-07T15:19:08;38.83;;;18.60;;
74523;SDS011;63074;44.696;10.358;2022-12-07T15:21:37;35.13;;;19.17;;
74523;SDS011;63074;44.696;10.358;2022-12-07T15:24:04;35.63;;;18.27;;
74523;SDS011;63074;44.696;10.358;2022-12-07T15:26:30;40.47;;;20.33;;
74523;SDS011;63074;44.696;10.358;2022-12-07T15:28:57;47.30;;;22.02;;
74523;SDS011;63074;44.696;10.358;2022-12-07T15:31:23;55.50;;;20.55;;
74523;SDS011;63074;44.696;10.358;2022-12-07T15:33:49;48.20;;;21.55;;
74523;SDS011;63074;44.696;10.358;2022-12-07T15:36:34;72.68;;;22.55;;
74523;SDS011;63074;44.696;10.358;2022-12-07T15:39:01;61.83;;;23.17;;
74523;SDS011;63074;44.696;10.358;2022-12-07T15:41:27;42.97;;;20.55;;
74523;SDS011;63074;44.696;10.358;2022-12-07T15:43:54;66.88;;;19.73;;
74523;SDS011;63074;44.696;10.358;2022-12-07T15:46:39;56.78;;;19.00;;
74523;SDS011;63074;44.696;10.358;2022-12-07T15:49:11;36.30;;;19.33;;
74523;SDS011;63074;44.696;10.358;2022-12-07T15:51:42;40.95;;;19.65;;
74523;SDS011;63074;44.696;10.358;2022-12-07T15:54:11;52.40;;;18.92;;
74523;SDS011;63074;44.696;10.358;2022-12-07T15:56:42;76.72;;;21.55;;
74523;SDS011;63074;44.696;10.358;2022-12-07T15:59:09;44.00;;;20.90;;
74523;SDS011;63074;44.696;10.358;2022-12-07T16:01:35;42.78;;;20.50;;
74523;SDS011;63074;44.696;10.358;2022-12-07T16:04:01;57.13;;;20.95;;
74523;SDS011;63074;44.696;10.358;2022-12-07T16:06:27;38.78;;;19.13;;
74523;SDS011;63074;44.696;10.358;2022-12-07T16:08:53;49.20;;;19.73;;
74523;SDS011;63074;44.696;10.358;2022-12-07T16:11:20;69.00;;;20.90;;
74523;SDS011;63074;44.696;10.358;2022-12-07T16:13:47;48.35;;;21.05;;
74523;SDS011;63074;44.696;10.358;2022-12-07T16:16:14;53.35;;;21.75;;
74523;SDS011;63074;44.696;10.358;2022-12-07T16:18:43;47.53;;;20.60;;
74523;SDS011;63074;44.696;10.358;2022-12-07T16:21:10;43.55;;;21.35;;
74523;SDS011;63074;44.696;10.358;2022-12-07T16:23:37;67.47;;;21.95;;
74523;SDS011;63074;44.696;10.358;2022-12-07T16:26:11;46.17;;;21.92;;
74523;SDS011;63074;44.696;10.358;2022-12-07T16:28:42;38.47;;;19.48;;
74523;SDS011;63074;44.696;10.358;2022-12-07T16:31:10;40.40;;;19.50;;
74523;SDS011;63074;44.696;10.358;2022-12-07T16:33:40;50.45;;;18.92;;
74523;SDS011;63074;44.696;10.358;2022-12-07T16:36:08;39.40;;;19.55;;
74523;SDS011;63074;44.696;10.358;2022-12-07T16:38:36;35.55;;;17.70;;
74523;SDS011;63074;44.696;10.358;2022-12-07T16:41:03;52.33;;;19.08;;
74523;SDS011;63074;44.696;10.358;2022-12-07T16:43:31;35.83;;;19.23;;
74523;SDS011;63074;44.696;10.358;2022-12-07T16:45:58;35.97;;;17.30;;
74523;SDS011;63074;44.696;10.358;2022-12-07T16:48:25;38.97;;;17.02;;
74523;SDS011;63074;44.696;10.358;2022-12-07T16:50:51;33.85;;;18.15;;
74523;SDS011;63074;44.696;10.358;2022-12-07T16:53:19;56.22;;;18.15;;
74523;SDS011;63074;44.696;10.358;2022-12-07T16:55:46;29.40;;;16.58;;
74523;SDS011;63074;44.696;10.358;2022-12-07T16:58:13;36.97;;;16.50;;
74523;SDS011;63074;44.696;10.358;2022-12-07T17:00:40;27.02;;;14.25;;
74523;SDS011;63074;44.696;10.358;2022-12-07T17:03:08;29.88;;;15.70;;
74523;SDS011;63074;44.696;10.358;2022-12-07T17:05:39;34.33;;;16.50;;
74523;SDS011;63074;44.696;10.358;2022-12-07T17:08:06;31.27;;;16.33;;
74523;SDS011;63074;44.696;10.358;2022-12-07T17:10:34;72.60;;;17.77;;
74523;SDS011;63074;44.696;10.358;2022-12-07T17:13:02;72.00;;;17.88;;
74523;SDS011;63074;44.696;10.358;2022-12-07T17:16:02;39.13;;;17.60;;
74523;SDS011;63074;44.696;10.358;2022-12-07T17:18:32;44.00;;;16.23;;
74523;SDS011;63074;44.696;10.358;2022-12-07T17:21:06;32.17;;;16.30;;